KBIX/BIX METAR and TAF weather

Enter ICAO airport designator
Station Type Date Time Source
KBIX METAR 2018/12/10 17:56 UTC NOAA

KBIX 101756Z AUTO 33009KT 10SM FEW028 11/03 A3022 RMK AO2 SLP237 T01080033 10108 20051 58009


Station Type Date Time Source
KBIX Decoded METAR 2018/12/10 17:56 UTC NOAA

Keesler Air Force Base / Biloxi, MS, United States (KBIX) 30-25N 088-55W
Dec 10, 2018 - 12:56 PM EST / 2018.12.10 1756 UTC
Wind: from the NNW (330 degrees) at 10 MPH (9 KT):0
Visibility: 10 mile(s):0
Sky conditions: mostly clear
Temperature: 51.4 F (10.8 C)
Dew Point: 37.9 F (3.3 C)
Relative Humidity: 59%
Pressure (altimeter): 30.22 in. Hg (1023 hPa)
Pressure tendency: 0.03 inches (0.9 hPa) lower than three hours ago
ob: KBIX 101756Z AUTO 33009KT 10SM FEW028 11/03 A3022 RMK AO2 SLP237 T01080033 10108 20051 58009
cycle: 18

Station Type Date Time Source
KBIX TAF 2018/12/10 18:06 UTC NOAA

TAF KBIX 101800Z 1018/1124 33009KT 9999 FEW020 QNH3018INS
BECMG 1120/1121 24006KT 9999 SKC QNH3030INS TX12/1020Z TN00/1112Z


Example: see airport list